Anderson Dam, Idaho
Current Conditions -  °F | °C
As of 5:58 AM on Wednesday 22 Oct 2014 (Local Time) from KMUO Reporting Station
Clear Clear  
Wind Chill: 33°   Ceiling: Unl
Heat Index: 40°   Visibility: 10mi
Dew Point: 40°   Wind: 9mph
Humidity: 100%   Direction: 100°E
Pressure: 30.09"   Gusts: NA
Location:  43.2609°N, 115.781°W
Report Text: KMUO 221158Z AUTO 10008KT 10SM CLR 04/04 A3009 RMK AO2 SLP189 70004 T00420042 10049 20036 55001
Loading
Personal Weather Stations






























Interactive Weather Map
Tropical Storm Tracking
New forecast layout! Learn more

10-Day Weather Forecast

Advertisements
Track Severe Weather on mobile